Time;durP1;ratioP1;P1;durP2;ratioP2;P2;SDS_P1;SDS_P2;PMS_P1;PMS_P2;Temp;Humidity;BMP_temperature;BMP_pressure;BME280_temperature;BME280_humidity;BME280_pressure;Samples;Min_cycle;Max_cycle;Signal;HPM_P1;HPM_P2
2022/08/20 00:00:39;;;;;;;4.32;2.50;;;;;;;20.35;58.30;100663.53;5067164;28;20841;-84
2022/08/20 00:03:21;;;;;;;2.90;2.70;;;;;;;20.39;58.65;100658.91;5050662;28;20070;-84
2022/08/20 00:05:52;;;;;;;3.95;3.00;;;;;;;20.43;58.35;100652.53;5033087;28;20055;-84
2022/08/20 00:08:22;;;;;;;3.13;2.92;;;;;;;20.45;58.57;100650.63;5056421;28;20020;-83
2022/08/20 00:10:51;;;;;;;3.08;2.88;;;;;;;20.43;59.02;100657.84;5072505;28;20039;-84
2022/08/20 00:13:48;;;;;;;5.15;3.22;;;;;;;20.38;59.71;100660.72;5074736;28;20061;-84
2022/08/20 00:16:18;;;;;;;2.80;2.60;;;;;;;20.34;59.06;100656.50;5058613;28;20128;-83
2022/08/20 00:18:45;;;;;;;3.08;2.78;;;;;;;20.28;59.14;100662.09;5051871;28;20116;-83
2022/08/20 00:21:18;;;;;;;3.22;2.90;;;;;;;20.27;59.82;100660.38;5055665;28;20033;-83
2022/08/20 00:23:50;;;;;;;3.55;2.47;;;;;;;20.25;59.92;100664.94;5052751;28;20067;-84
2022/08/20 00:26:19;;;;;;;2.63;2.42;;;;;;;20.22;60.40;100657.97;5069796;28;20044;-83
2022/08/20 00:28:46;;;;;;;3.70;2.55;;;;;;;20.22;60.28;100657.97;5050716;28;20064;-84
2022/08/20 00:31:17;;;;;;;3.35;2.88;;;;;;;20.23;60.25;100654.34;5033128;28;20052;-84
2022/08/20 00:33:47;;;;;;;4.80;3.53;;;;;;;20.21;60.53;100658.91;5028767;28;20048;-84
2022/08/20 00:36:16;;;;;;;3.88;2.92;;;;;;;20.23;60.22;100659.66;5043496;28;20749;-85
2022/08/20 00:38:46;;;;;;;2.97;2.78;;;;;;;20.29;60.52;100661.19;5044226;28;21232;-84
2022/08/20 00:41:23;;;;;;;3.08;2.85;;;;;;;20.39;60.28;100664.22;5041050;28;20506;-84
2022/08/20 00:44:12;;;;;;;3.60;2.55;;;;;;;20.47;60.35;100665.56;5057005;28;20128;-85
2022/08/20 00:46:43;;;;;;;4.15;2.60;;;;;;;20.57;59.25;100670.41;5044033;28;20044;-84
2022/08/20 00:49:17;;;;;;;2.65;2.25;;;;;;;20.63;58.75;100670.13;5027792;28;20106;-83
2022/08/20 00:51:50;;;;;;;2.72;2.53;;;;;;;20.69;58.25;100669.81;5044707;28;20064;-84
2022/08/20 00:57:33;;;;;;;4.65;2.55;;;;;;;20.73;57.67;100667.84;5053071;28;20047;-85
2022/08/20 01:00:10;;;;;;;3.92;2.47;;;;;;;20.73;57.36;100665.19;5049851;28;20059;-84
2022/08/20 01:02:38;;;;;;;5.35;2.45;;;;;;;20.72;57.31;100674.16;5040772;28;20125;-84
2022/08/20 01:05:09;;;;;;;3.75;2.50;;;;;;;20.67;57.48;100680.50;5023568;28;20059;-84
2022/08/20 01:07:38;;;;;;;4.55;2.60;;;;;;;20.62;57.29;100674.59;5048643;28;20999;-83
2022/08/20 01:10:18;;;;;;;5.20;2.45;;;;;;;20.58;56.92;100683.63;5062573;28;20060;-84
2022/08/20 01:12:48;;;;;;;4.20;2.60;;;;;;;20.52;56.75;100677.75;5056600;28;20054;-84
2022/08/20 01:15:22;;;;;;;3.20;1.83;;;;;;;20.46;56.64;100685.09;5044974;28;21242;-84
2022/08/20 01:18:01;;;;;;;4.05;2.10;;;;;;;20.39;56.34;100691.69;5049623;28;20495;-83
2022/08/20 01:20:32;;;;;;;8.88;2.70;;;;;;;20.28;56.51;100680.72;5046419;28;20095;-84
2022/08/20 01:23:29;;;;;;;6.47;3.00;;;;;;;20.26;56.57;100679.91;5056021;28;20068;-83
2022/08/20 01:26:26;;;;;;;3.35;2.10;;;;;;;20.24;56.43;100687.97;5041307;28;20037;-83
2022/08/20 01:29:03;;;;;;;4.82;2.15;;;;;;;20.22;56.33;100689.84;5052866;28;20052;-83
2022/08/20 01:31:36;;;;;;;7.00;3.35;;;;;;;20.21;56.34;100692.56;5044720;28;20051;-83
2022/08/20 01:34:08;;;;;;;4.53;3.13;;;;;;;20.18;56.25;100690.94;5055169;28;20064;-84
2022/08/20 01:36:54;;;;;;;4.22;3.42;;;;;;;20.15;56.34;100696.41;5042165;28;20059;-84
2022/08/20 01:39:33;;;;;;;9.52;3.40;;;;;;;20.15;56.53;100684.00;5042385;28;20144;-84
2022/08/20 01:42:23;;;;;;;9.15;3.50;;;;;;;20.15;56.48;100696.41;5037907;28;20881;-84
2022/08/20 01:44:51;;;;;;;5.88;2.80;;;;;;;20.14;56.67;100695.53;5042886;28;20053;-85
2022/08/20 01:47:30;;;;;;;6.35;2.50;;;;;;;20.14;56.46;100689.34;5026987;28;20140;-84
2022/08/20 01:50:17;;;;;;;2.22;1.95;;;;;;;20.12;56.45;100693.91;5068218;28;20137;-83
2022/08/20 01:52:55;;;;;;;2.22;2.00;;;;;;;20.08;56.88;100706.47;5059459;28;20151;-83
2022/08/20 01:55:23;;;;;;;2.42;1.60;;;;;;;20.07;56.69;100690.59;5051331;28;20061;-84
2022/08/20 01:57:53;;;;;;;1.63;1.52;;;;;;;20.06;56.85;100691.53;5045953;28;20048;-84
2022/08/20 02:00:21;;;;;;;1.40;1.40;;;;;;;20.04;56.93;100688.06;5061691;28;20119;-83
2022/08/20 02:02:49;;;;;;;3.88;1.58;;;;;;;20.02;57.01;100679.31;5053398;28;20063;-84
2022/08/20 02:05:18;;;;;;;2.08;1.88;;;;;;;20.03;57.10;100689.03;5046173;28;21316;-83
2022/08/20 02:07:45;;;;;;;1.70;1.45;;;;;;;20.00;57.14;100685.56;5012727;28;20049;-84
2022/08/20 02:10:18;;;;;;;3.35;1.40;;;;;;;19.99;57.13;100697.13;5027136;28;20111;-84
2022/08/20 02:12:47;;;;;;;1.77;1.67;;;;;;;19.99;57.21;100691.81;5043997;28;20071;-84
2022/08/20 02:15:15;;;;;;;1.45;1.13;;;;;;;20.00;57.46;100692.69;5048337;28;20527;-83
2022/08/20 02:17:41;;;;;;;1.42;1.33;;;;;;;20.00;57.60;100684.72;5033604;28;20047;-84
2022/08/20 02:20:25;;;;;;;1.60;1.50;;;;;;;19.98;57.77;100681.25;5047172;28;20053;-83
2022/08/20 02:22:59;;;;;;;1.00;1.00;;;;;;;19.94;58.10;100680.53;5057860;28;20741;-84
2022/08/20 02:25:33;;;;;;;1.63;1.52;;;;;;;19.92;58.27;100681.53;5031151;28;20055;-83
2022/08/20 02:28:08;;;;;;;1.15;1.05;;;;;;;19.90;58.41;100683.44;5050935;28;20067;-83
2022/08/20 02:30:42;;;;;;;2.58;1.80;;;;;;;19.90;59.32;100686.09;5063204;28;20124;-83
2022/08/20 02:33:16;;;;;;;1.85;1.75;;;;;;;19.91;59.51;100687.81;5038828;28;20058;-85
2022/08/20 02:35:48;;;;;;;2.75;1.50;;;;;;;19.91;59.60;100687.81;5047114;28;20487;-85
2022/08/20 02:38:15;;;;;;;2.08;1.38;;;;;;;19.89;60.07;100687.88;5063002;28;20064;-84
2022/08/20 02:40:48;;;;;;;2.90;2.20;;;;;;;19.91;60.32;100691.31;5011834;28;20041;-84
2022/08/20 02:43:18;;;;;;;3.22;1.65;;;;;;;19.92;60.27;100694.84;5026379;28;20801;-85
2022/08/20 02:45:47;;;;;;;5.95;1.48;;;;;;;19.91;60.69;100691.31;5064702;28;20590;-84
2022/08/20 02:48:21;;;;;;;3.45;1.92;;;;;;;19.89;60.71;100685.22;5045732;28;20044;-83
2022/08/20 02:50:56;;;;;;;2.00;1.77;;;;;;;19.91;61.01;100693.13;5062630;28;20036;-83
2022/08/20 02:53:25;;;;;;;3.00;1.90;;;;;;;19.89;60.83;100687.03;5025743;28;20036;-83
2022/08/20 02:55:52;;;;;;;7.60;2.13;;;;;;;19.85;61.39;100694.25;5047651;28;20461;-84
2022/08/20 02:58:20;;;;;;;1.95;1.85;;;;;;;19.82;60.91;100694.41;5043836;28;20041;-84
2022/08/20 03:00:50;;;;;;;1.75;1.58;;;;;;;19.83;61.09;100697.00;5031281;28;20048;-85
2022/08/20 03:03:23;;;;;;;2.78;1.85;;;;;;;19.85;61.31;100696.06;5043706;28;20044;-83
2022/08/20 03:05:56;;;;;;;2.92;2.63;;;;;;;19.86;61.32;100693.34;5034688;28;20129;-84
2022/08/20 03:08:24;;;;;;;1.75;1.65;;;;;;;19.87;61.17;100700.38;5059331;28;20037;-84
2022/08/20 03:10:52;;;;;;;2.45;1.80;;;;;;;19.86;61.37;100696.00;5032690;28;20157;-84
2022/08/20 03:13:24;;;;;;;1.95;1.45;;;;;;;19.83;61.62;100699.66;5050734;28;20114;-84
2022/08/20 03:15:58;;;;;;;4.20;1.95;;;;;;;19.83;61.58;100698.81;5055427;28;20080;-83
2022/08/20 03:18:42;;;;;;;3.53;1.83;;;;;;;19.82;61.68;100697.94;5042342;28;20127;-83
2022/08/20 03:21:10;;;;;;;2.88;2.05;;;;;;;19.78;61.92;100703.44;5067711;28;20120;-83
2022/08/20 03:23:38;;;;;;;2.13;2.00;;;;;;;19.75;62.22;100708.88;5072352;28;20044;-85
2022/08/20 03:26:08;;;;;;;7.15;1.95;;;;;;;19.75;61.87;100708.88;5090429;28;20037;-83
2022/08/20 03:28:35;;;;;;;3.95;2.42;;;;;;;19.72;62.19;100706.38;5072659;28;20067;-84
2022/08/20 03:31:08;;;;;;;3.22;1.80;;;;;;;19.72;62.69;100709.88;5056685;28;20057;-83
2022/08/20 03:33:35;;;;;;;2.90;2.70;;;;;;;19.67;62.43;100706.56;5071937;28;20072;-84
2022/08/20 03:36:04;;;;;;;4.30;2.45;;;;;;;19.62;62.82;100716.53;5069032;28;20048;-83
2022/08/20 03:38:33;;;;;;;3.33;2.10;;;;;;;19.58;62.75;100713.19;5068930;28;20036;-83
2022/08/20 03:41:02;;;;;;;1.70;1.60;;;;;;;19.61;62.79;100726.31;5050870;28;20038;-84
2022/08/20 03:43:32;;;;;;;3.97;2.05;;;;;;;19.62;62.80;100717.44;5058471;28;20051;-84
2022/08/20 03:46:01;;;;;;;2.33;2.03;;;;;;;19.65;62.73;100721.72;5064279;28;20045;-81
2022/08/20 03:48:28;;;;;;;2.95;2.47;;;;;;;19.65;62.95;100729.69;5066443;28;20096;-82
2022/08/20 03:50:57;;;;;;;2.33;2.05;;;;;;;19.64;62.92;100720.84;5090588;28;20084;-83
2022/08/20 03:53:24;;;;;;;3.28;2.58;;;;;;;19.64;63.12;100720.84;5068836;28;20053;-83
2022/08/20 03:55:54;;;;;;;8.25;2.85;;;;;;;19.68;63.42;100724.25;5065776;28;20151;-83
2022/08/20 03:58:25;;;;;;;2.38;1.98;;;;;;;19.68;63.29;100724.25;5051842;28;20503;-83
2022/08/20 04:00:51;;;;;;;3.30;2.85;;;;;;;19.66;63.79;100726.97;5036110;28;20037;-85
2022/08/20 04:03:18;;;;;;;4.05;2.30;;;;;;;19.65;64.02;100733.19;5047845;28;20041;-83
2022/08/20 04:05:46;;;;;;;4.47;3.30;;;;;;;19.62;64.09;100724.50;5062466;28;20056;-84
2022/08/20 04:08:20;;;;;;;3.08;2.78;;;;;;;19.59;64.57;100729.97;5047579;28;20032;-83
2022/08/20 04:10:49;;;;;;;2.65;2.45;;;;;;;19.55;64.69;100725.75;5065206;28;20872;-83
2022/08/20 04:13:20;;;;;;;2.50;2.30;;;;;;;19.53;64.83;100730.25;5032361;28;20055;-84
2022/08/20 04:15:52;;;;;;;3.47;3.17;;;;;;;19.53;64.92;100733.78;5050394;28;20565;-84
2022/08/20 04:18:21;;;;;;;4.90;2.58;;;;;;;19.51;65.07;100727.66;5050893;28;20043;-83
2022/08/20 04:20:48;;;;;;;2.75;2.55;;;;;;;19.49;65.30;100735.69;5046523;28;20526;-83
2022/08/20 04:23:16;;;;;;;5.68;3.53;;;;;;;19.46;65.73;100730.53;5031443;28;20509;-82
2022/08/20 04:25:45;;;;;;;2.92;2.72;;;;;;;19.46;65.60;100733.19;5063336;28;20166;-84
2022/08/20 04:28:24;;;;;;;2.80;2.50;;;;;;;19.47;65.80;100729.59;5052060;28;20098;-83
2022/08/20 04:30:52;;;;;;;3.72;3.10;;;;;;;19.47;66.40;100737.56;5052689;28;20039;-83
2022/08/20 04:33:20;;;;;;;4.72;3.63;;;;;;;19.45;66.91;100738.56;5048159;28;20040;-84
2022/08/20 04:35:50;;;;;;;3.83;3.60;;;;;;;19.42;67.87;100744.84;5049953;28;20248;-83
2022/08/20 04:38:20;;;;;;;4.97;4.57;;;;;;;19.38;69.71;100751.25;5014100;28;20462;-83
2022/08/20 04:40:57;;;;;;;4.75;3.83;;;;;;;19.34;70.38;100741.69;5070388;28;20086;-83
2022/08/20 04:43:37;;;;;;;7.85;4.75;;;;;;;19.34;71.39;100744.34;5060747;28;20040;-82
2022/08/20 04:46:09;;;;;;;5.95;5.15;;;;;;;19.34;72.67;100741.69;5078368;28;20535;-82
2022/08/20 04:48:38;;;;;;;6.00;5.43;;;;;;;19.32;72.98;100749.72;5030866;28;20048;-83
2022/08/20 04:51:07;;;;;;;5.00;4.60;;;;;;;19.32;73.31;100749.72;5035507;28;20448;-83
2022/08/20 04:53:35;;;;;;;5.30;4.80;;;;;;;19.28;76.29;100737.53;5065345;28;20491;-84
2022/08/20 04:56:03;;;;;;;5.63;5.18;;;;;;;19.20;78.53;100739.63;5044648;28;20063;-84
2022/08/20 04:58:40;;;;;;;7.72;6.97;;;;;;;19.11;82.40;100740.03;5052469;28;20391;-84
2022/08/20 05:01:11;;;;;;;8.10;6.32;;;;;;;19.03;83.20;100737.72;5044532;28;20072;-83
2022/08/20 05:03:40;;;;;;;6.22;5.68;;;;;;;19.00;82.85;100732.56;5059368;28;20872;-84
2022/08/20 05:06:09;;;;;;;6.55;5.95;;;;;;;18.97;82.64;100741.50;5033698;28;20044;-83
2022/08/20 05:08:39;;;;;;;7.43;6.68;;;;;;;19.02;83.76;100741.31;5052534;28;20048;-83
2022/08/20 05:11:08;;;;;;;6.40;5.80;;;;;;;19.07;82.22;100744.59;5048810;28;20546;-83
2022/08/20 05:13:36;;;;;;;6.07;5.57;;;;;;;19.12;81.72;100747.94;5033682;28;20052;-84
2022/08/20 05:16:03;;;;;;;6.90;6.30;;;;;;;19.16;81.89;100746.00;5049782;28;20125;-83
2022/08/20 05:18:32;;;;;;;6.80;5.93;;;;;;;19.18;82.08;100752.97;5034507;28;20539;-83
2022/08/20 05:21:04;;;;;;;6.00;5.40;;;;;;;19.19;82.46;100753.84;5048723;28;20141;-84
2022/08/20 05:23:39;;;;;;;7.20;6.43;;;;;;;19.22;82.62;100751.06;5048550;28;20968;-84
2022/08/20 05:26:08;;;;;;;6.72;6.22;;;;;;;19.18;83.28;100754.78;5038578;28;20040;-85
2022/08/20 05:28:37;;;;;;;9.65;6.50;;;;;;;19.18;84.23;100766.25;5049039;28;20045;-84
2022/08/20 05:31:08;;;;;;;8.25;7.25;;;;;;;19.18;84.49;100773.34;5050862;28;20052;-83
2022/08/20 05:33:37;;;;;;;9.90;7.65;;;;;;;19.17;84.76;100777.78;5070000;28;20502;-82
2022/08/20 05:36:07;;;;;;;8.52;6.40;;;;;;;19.20;85.11;100775.94;5053913;28;20049;-84
2022/08/20 05:38:36;;;;;;;7.25;5.82;;;;;;;19.20;84.82;100771.47;5067109;28;20041;-85
2022/08/20 05:41:04;;;;;;;8.95;6.15;;;;;;;19.23;85.42;100771.38;5034660;28;20052;-82
2022/08/20 05:43:32;;;;;;;8.07;6.82;;;;;;;19.31;85.25;100779.00;5049764;28;20047;-82
2022/08/20 05:46:04;;;;;;;7.77;7.10;;;;;;;19.37;85.34;100778.72;5049437;28;20224;-83
2022/08/20 05:48:34;;;;;;;7.57;6.80;;;;;;;19.39;85.20;100790.13;5023593;28;20068;-83
2022/08/20 05:51:01;;;;;;;7.53;6.45;;;;;;;19.36;83.75;100792.94;5052918;28;20130;-87
2022/08/20 05:53:30;;;;;;;6.05;5.00;;;;;;;19.43;82.87;100799.69;5054717;28;20123;-85
2022/08/20 05:55:58;;;;;;;6.07;5.25;;;;;;;19.51;81.91;100805.50;5033048;28;20143;-82
2022/08/20 05:58:28;;;;;;;5.45;4.88;;;;;;;19.57;81.58;100793.78;5053363;28;20053;-81
2022/08/20 06:00:54;;;;;;;6.75;5.80;;;;;;;19.68;81.10;100795.94;5053660;28;20147;-81
2022/08/20 06:06:07;;;;;;;5.93;4.95;;;;;;;19.78;80.17;100791.09;5049649;28;20056;-83
2022/08/20 06:08:34;;;;;;;5.93;4.85;;;;;;;19.87;79.93;100790.69;5069682;28;20040;-83
2022/08/20 06:11:01;;;;;;;5.00;4.60;;;;;;;19.97;78.92;100792.00;5050357;28;20052;-81
2022/08/20 06:13:28;;;;;;;5.03;4.63;;;;;;;20.03;79.06;100787.34;5064471;28;20052;-83
2022/08/20 06:15:57;;;;;;;4.63;4.03;;;;;;;20.13;78.80;100778.00;5049928;28;20053;-82
2022/08/20 06:18:26;;;;;;;5.35;4.78;;;;;;;20.17;78.60;100783.09;5026221;28;20043;-84
2022/08/20 06:20:59;;;;;;;4.60;4.13;;;;;;;20.28;78.11;100784.38;5062531;28;20450;-83
2022/08/20 06:23:29;;;;;;;5.07;4.57;;;;;;;20.36;77.52;100778.69;5064869;28;20483;-83
2022/08/20 06:25:56;;;;;;;6.68;6.07;;;;;;;20.44;76.98;100777.41;5058227;28;20066;-83
2022/08/20 06:28:23;;;;;;;4.65;4.25;;;;;;;20.61;76.28;100781.03;5038492;28;20064;-83
2022/08/20 06:30:50;;;;;;;6.60;5.03;;;;;;;20.64;76.05;100786.22;5033040;28;20499;-82
2022/08/20 06:33:17;;;;;;;4.97;4.55;;;;;;;20.70;76.12;100779.75;5047884;28;20044;-81
2022/08/20 06:35:43;;;;;;;5.45;4.97;;;;;;;20.87;75.47;100781.56;5063273;28;20507;-83
2022/08/20 06:38:13;;;;;;;7.65;5.70;;;;;;;20.92;75.58;100788.38;5051089;28;20055;-83
2022/08/20 06:40:40;;;;;;;5.93;5.18;;;;;;;21.09;74.68;100776.91;5049455;28;20043;-83
2022/08/20 06:43:08;;;;;;;9.15;6.25;;;;;;;21.26;73.54;100792.00;5028140;28;20094;-83
2022/08/20 06:45:37;;;;;;;6.65;6.15;;;;;;;21.42;72.25;100788.50;5038076;28;20112;-83
2022/08/20 06:48:10;;;;;;;7.60;5.88;;;;;;;21.47;72.06;100789.13;5070256;28;20044;-83
2022/08/20 06:50:45;;;;;;;8.70;7.60;;;;;;;21.52;71.73;100792.41;5056455;28;20103;-83
2022/08/20 06:53:21;;;;;;;7.53;6.65;;;;;;;21.74;70.97;100783.34;5058137;28;20048;-84
2022/08/20 06:55:56;;;;;;;6.43;5.85;;;;;;;22.24;69.36;100789.50;5046392;28;20187;-82
2022/08/20 06:58:24;;;;;;;7.25;6.57;;;;;;;22.67;67.82;100778.22;5075492;28;20052;-82
2022/08/20 07:00:51;;;;;;;8.23;7.40;;;;;;;23.06;66.50;100788.38;5041188;28;20453;-83
2022/08/20 07:03:19;;;;;;;7.95;7.15;;;;;;;23.46;64.72;100777.13;5049851;28;20060;-84
2022/08/20 07:05:48;;;;;;;10.23;6.97;;;;;;;23.56;64.74;100780.97;5054417;28;20094;-83
2022/08/20 07:08:25;;;;;;;8.48;7.57;;;;;;;23.92;63.80;100787.69;5042731;28;20059;-83
2022/08/20 07:10:52;;;;;;;7.53;6.82;;;;;;;24.28;62.02;100783.59;5051820;28;20047;-83
2022/08/20 07:13:19;;;;;;;8.35;6.85;;;;;;;24.54;61.54;100781.03;5049108;28;20044;-83
2022/08/20 07:15:46;;;;;;;7.95;7.25;;;;;;;24.49;61.14;100787.66;5065605;28;20495;-84
2022/08/20 07:18:15;;;;;;;8.32;7.63;;;;;;;24.30;61.89;100788.00;5047654;28;20040;-83
2022/08/20 07:20:50;;;;;;;8.52;6.70;;;;;;;24.08;62.44;100797.41;5031381;28;20060;-84
2022/08/20 07:23:18;;;;;;;7.88;7.07;;;;;;;24.11;62.54;100791.84;5013061;28;20056;-84
2022/08/20 07:25:47;;;;;;;8.13;7.45;;;;;;;24.07;62.32;100801.03;5026074;28;20048;-84
2022/08/20 07:28:29;;;;;;;7.95;7.25;;;;;;;24.07;62.83;100798.34;5028613;28;20136;-83
2022/08/20 07:33:44;;;;;;;10.60;8.85;;;;;;;24.22;62.16;100802.72;5026290;28;20590;-87
2022/08/20 07:36:13;;;;;;;8.70;7.90;;;;;;;24.59;60.54;100804.84;5026770;28;20128;-84
2022/08/20 07:38:44;;;;;;;7.63;6.93;;;;;;;24.68;60.16;100811.41;5013817;28;20049;-85
2022/08/20 07:41:13;;;;;;;8.10;6.65;;;;;;;24.81;60.07;100809.66;5040988;28;20029;-84
2022/08/20 07:46:23;;;;;;;8.57;7.78;;;;;;;24.79;59.60;100816.06;5052418;28;20060;-84
2022/08/20 07:48:53;;;;;;;10.40;8.40;;;;;;;24.69;59.58;100819.38;5034500;28;20088;-84
2022/08/20 07:51:23;;;;;;;6.88;6.20;;;;;;;24.55;60.30;100809.53;5017375;28;20047;-82
2022/08/20 07:53:52;;;;;;;6.28;5.78;;;;;;;24.66;60.13;100822.22;5036662;28;20487;-83
2022/08/20 07:56:25;;;;;;;4.65;4.32;;;;;;;25.19;58.10;100808.88;5018192;28;20057;-83
2022/08/20 07:58:55;;;;;;;5.75;5.13;;;;;;;25.46;55.77;100823.19;5019334;28;20150;-85
2022/08/20 08:01:32;;;;;;;5.22;4.82;;;;;;;25.37;55.46;100827.34;5030929;28;20075;-84
2022/08/20 08:04:00;;;;;;;4.85;4.55;;;;;;;25.43;55.01;100829.63;5032785;28;20589;-86
2022/08/20 08:06:31;;;;;;;6.30;5.78;;;;;;;25.43;54.66;100832.31;5034863;28;20041;-84
2022/08/20 08:09:10;;;;;;;6.53;5.93;;;;;;;25.58;53.25;100833.94;5015971;28;20040;-85
2022/08/20 08:11:43;;;;;;;5.82;5.32;;;;;;;25.27;53.96;100835.16;5030282;28;20499;-85
2022/08/20 08:14:12;;;;;;;5.38;4.97;;;;;;;25.04;55.06;100839.38;5030958;28;20440;-85
2022/08/20 08:16:39;;;;;;;6.45;5.93;;;;;;;24.72;55.43;100842.41;5051317;28;20660;-85
2022/08/20 08:19:10;;;;;;;6.10;5.55;;;;;;;24.18;57.42;100853.84;5036730;28;20045;-85
2022/08/20 08:21:40;;;;;;;6.43;5.82;;;;;;;23.89;58.29;100851.13;5055410;28;20044;-83
2022/08/20 08:24:21;;;;;;;6.60;6.00;;;;;;;23.72;59.76;100853.03;5051374;28;20119;-84
2022/08/20 08:26:49;;;;;;;8.38;7.10;;;;;;;23.39;60.60;100862.13;5062670;28;20040;-83
2022/08/20 08:29:16;;;;;;;6.63;5.97;;;;;;;23.19;61.59;100857.09;5081455;28;20039;-84
2022/08/20 08:31:42;;;;;;;8.27;7.07;;;;;;;22.92;63.54;100861.28;5032873;28;20040;-84
2022/08/20 08:34:10;;;;;;;6.88;6.20;;;;;;;22.63;64.50;100866.47;5031269;28;20048;-83
2022/08/20 08:36:38;;;;;;;7.50;6.72;;;;;;;22.57;65.19;100864.13;5065405;28;20824;-84
2022/08/20 08:39:15;;;;;;;8.88;7.93;;;;;;;22.45;65.91;100862.16;5055124;28;20527;-83
2022/08/20 08:41:48;;;;;;;8.25;6.40;;;;;;;22.45;66.63;100871.00;5052600;28;20056;-84
2022/08/20 08:44:25;;;;;;;9.32;8.32;;;;;;;22.26;67.44;100865.78;5049968;28;20044;-84
2022/08/20 08:47:01;;;;;;;9.63;7.32;;;;;;;22.19;67.80;100869.75;5054027;28;20048;-84
2022/08/20 08:49:42;;;;;;;8.55;6.95;;;;;;;22.23;67.76;100870.44;5050368;28;20037;-84
2022/08/20 08:52:18;;;;;;;7.60;6.90;;;;;;;22.30;66.43;100874.50;5051352;28;20041;-85
2022/08/20 08:55:01;;;;;;;7.68;6.75;;;;;;;22.36;66.35;100870.66;5037924;28;20231;-84
2022/08/20 08:57:31;;;;;;;6.32;5.78;;;;;;;22.44;65.24;100869.28;5054799;28;20075;-84
2022/08/20 09:00:06;;;;;;;6.68;6.03;;;;;;;22.55;64.81;100867.84;5068653;28;20094;-84
2022/08/20 09:02:41;;;;;;;7.63;6.85;;;;;;;22.68;63.84;100873.34;5049432;28;20041;-84
2022/08/20 09:05:22;;;;;;;6.68;6.15;;;;;;;22.79;63.06;100877.13;5035387;28;20139;-84
2022/08/20 09:07:52;;;;;;;6.55;5.85;;;;;;;22.96;62.54;100880.66;5033910;28;20056;-84
2022/08/20 09:13:02;;;;;;;7.95;7.15;;;;;;;23.37;61.24;100880.06;5057192;28;20107;-83
2022/08/20 09:15:29;;;;;;;8.50;7.72;;;;;;;23.55;60.71;100890.59;5067355;28;20106;-84
2022/08/20 09:17:58;;;;;;;6.82;6.22;;;;;;;23.56;60.67;100890.50;5035198;28;20045;-82
2022/08/20 09:20:25;;;;;;;9.07;7.35;;;;;;;23.52;60.66;100888.09;5053787;28;20065;-83
2022/08/20 09:22:52;;;;;;;7.85;6.50;;;;;;;23.62;60.88;100889.28;5037321;28;20041;-84
2022/08/20 09:25:22;;;;;;;7.22;6.53;;;;;;;23.76;60.68;100888.44;5051415;28;20058;-83
2022/08/20 09:27:49;;;;;;;8.60;7.75;;;;;;;23.95;59.88;100890.91;5037388;28;20101;-83
2022/08/20 09:30:22;;;;;;;7.75;6.38;;;;;;;23.97;60.02;100883.63;5019361;28;20055;-85
2022/08/20 09:32:50;;;;;;;5.82;4.85;;;;;;;24.14;59.50;100889.75;5054127;28;20055;-84
2022/08/20 09:35:20;;;;;;;8.00;6.20;;;;;;;24.34;58.84;100885.81;5034190;28;20052;-84
2022/08/20 09:37:47;;;;;;;6.22;5.60;;;;;;;24.45;58.28;100888.69;5070161;28;20021;-84
2022/08/20 09:40:15;;;;;;;6.68;6.03;;;;;;;24.61;57.77;100888.53;5051125;28;20050;-83
2022/08/20 09:42:42;;;;;;;6.60;5.93;;;;;;;24.87;57.02;100880.66;5031334;28;20103;-85
2022/08/20 09:45:13;;;;;;;5.90;5.43;;;;;;;24.92;56.45;100870.53;5048588;28;20408;-84
2022/08/20 09:47:42;;;;;;;5.60;5.07;;;;;;;25.03;56.12;100869.78;5017762;28;20089;-85
2022/08/20 09:50:11;;;;;;;11.25;7.20;;;;;;;25.14;55.97;100864.59;5062699;28;20055;-85
2022/08/20 09:52:45;;;;;;;7.90;5.50;;;;;;;25.81;54.52;100869.00;5042053;28;20052;-85
2022/08/20 09:55:21;;;;;;;6.55;6.03;;;;;;;26.27;53.12;100875.66;5027411;28;20132;-84
2022/08/20 09:57:58;;;;;;;7.80;7.05;;;;;;;27.50;49.14;100864.84;5032334;28;20048;-84
2022/08/20 10:00:32;;;;;;;7.05;6.32;;;;;;;29.23;46.12;100861.75;5067673;28;20074;-84
2022/08/20 10:03:02;;;;;;;6.32;5.85;;;;;;;30.30;41.97;100863.38;5051147;28;20041;-85
2022/08/20 10:05:30;;;;;;;5.75;5.22;;;;;;;31.01;41.73;100870.47;5042164;28;20072;-84
2022/08/20 10:07:58;;;;;;;6.50;5.95;;;;;;;30.78;41.31;100867.19;5062239;28;20139;-85
2022/08/20 10:10:24;;;;;;;5.38;4.88;;;;;;;29.78;41.76;100872.34;5039380;28;20186;-84
2022/08/20 10:12:51;;;;;;;5.28;4.88;;;;;;;28.67;45.03;100874.44;5040095;28;20079;-84
2022/08/20 10:15:18;;;;;;;6.40;5.90;;;;;;;27.78;46.91;100882.34;5072374;28;20033;-84
2022/08/20 10:17:45;;;;;;;5.72;5.20;;;;;;;27.05;49.21;100882.50;5073465;28;20059;-85
2022/08/20 10:20:13;;;;;;;5.47;4.97;;;;;;;26.77;50.05;100881.00;5053862;28;20057;-85
2022/08/20 10:22:40;;;;;;;7.03;5.32;;;;;;;26.68;50.45;100881.66;5034512;28;20045;-86
2022/08/20 10:25:09;;;;;;;7.25;6.53;;;;;;;26.27;51.56;100872.09;5037244;28;20050;-84
2022/08/20 10:27:37;;;;;;;6.28;5.72;;;;;;;26.19;52.16;100875.31;5001247;28;20499;-84
2022/08/20 10:30:07;;;;;;;6.55;6.03;;;;;;;26.29;51.97;100881.75;5053682;28;20082;-86
2022/08/20 10:32:34;;;;;;;6.82;6.22;;;;;;;26.11;52.90;100873.19;5051533;28;20052;-84
2022/08/20 10:35:02;;;;;;;6.65;6.05;;;;;;;25.81;53.75;100879.72;5017505;28;20048;-84
2022/08/20 10:37:33;;;;;;;7.70;6.95;;;;;;;25.55;54.84;100882.41;5030295;28;20049;-85
2022/08/20 10:40:02;;;;;;;6.15;5.75;;;;;;;25.22;56.20;100877.47;5009012;28;20068;-84
2022/08/20 10:42:29;;;;;;;9.60;8.80;;;;;;;24.82;59.89;100891.66;5013862;28;20075;-84
2022/08/20 10:44:56;;;;;;;9.82;9.13;;;;;;;24.14;64.29;100887.94;5030140;28;20106;-83
2022/08/20 10:47:31;;;;;;;11.90;10.90;;;;;;;23.63;67.70;100893.69;5030150;28;20036;-86
2022/08/20 10:50:04;;;;;;;10.65;9.75;;;;;;;23.26;69.71;100896.72;5030103;28;20045;-85
2022/08/20 10:52:32;;;;;;;13.68;11.48;;;;;;;23.01;71.30;100902.59;5034573;28;20106;-86
2022/08/20 10:54:58;;;;;;;13.15;11.85;;;;;;;22.79;73.18;100901.13;5014871;28;20147;-84
2022/08/20 11:00:16;;;;;;;17.70;15.90;;;;;;;22.39;77.80;100905.16;5044417;28;20068;-87
2022/08/20 11:02:44;;;;;;;19.10;17.10;;;;;;;22.11;80.16;100907.50;5028356;28;20380;-84
2022/08/20 11:05:12;;;;;;;18.55;16.75;;;;;;;21.80;83.14;100913.56;5028994;28;20061;-84
2022/08/20 11:07:54;;;;;;;18.85;16.80;;;;;;;21.58;85.19;100917.34;5031582;28;20095;-85
2022/08/20 11:10:22;;;;;;;15.25;13.85;;;;;;;21.45;85.19;100911.72;5034147;28;20049;-86
2022/08/20 11:12:49;;;;;;;16.35;14.60;;;;;;;21.42;85.51;100917.22;5047013;28;20049;-84
2022/08/20 11:15:17;;;;;;;18.50;15.70;;;;;;;21.41;86.88;100914.66;5014221;28;20049;-85
2022/08/20 11:17:48;;;;;;;18.90;15.32;;;;;;;21.29;88.23;100918.78;5011901;28;20048;-86
2022/08/20 11:20:22;;;;;;;16.33;14.85;;;;;;;21.21;88.76;100920.94;5039507;28;20053;-85
2022/08/20 11:22:50;;;;;;;15.80;14.18;;;;;;;21.19;89.21;100915.69;5045138;28;20135;-85
2022/08/20 11:25:17;;;;;;;17.73;15.93;;;;;;;21.29;89.83;100922.31;5035448;28;20649;-86
2022/08/20 11:27:55;;;;;;;14.77;13.38;;;;;;;21.38;87.84;100922.78;5069332;28;20068;-85
2022/08/20 11:30:28;;;;;;;14.85;13.43;;;;;;;21.59;86.44;100924.41;5066133;28;20063;-84
2022/08/20 11:32:56;;;;;;;15.00;13.40;;;;;;;21.90;85.05;100921.94;5058121;28;20340;-85
2022/08/20 11:35:24;;;;;;;15.98;14.35;;;;;;;22.18;83.47;100920.50;5059029;28;20093;-86
2022/08/20 11:37:56;;;;;;;12.93;11.80;;;;;;;22.46;81.98;100917.22;5038312;28;20053;-86
2022/08/20 11:40:26;;;;;;;14.02;12.75;;;;;;;22.65;80.95;100918.88;5074203;28;20616;-85
2022/08/20 11:42:52;;;;;;;22.20;13.43;;;;;;;22.69;81.31;100917.75;5039529;28;20041;-86
2022/08/20 11:45:24;;;;;;;14.90;13.57;;;;;;;22.83;81.28;100920.53;5060562;28;20037;-85
2022/08/20 11:47:51;;;;;;;13.95;12.65;;;;;;;23.05;79.52;100917.50;5059077;28;20042;-84
2022/08/20 11:50:22;;;;;;;14.63;13.07;;;;;;;23.25;78.22;100915.50;5070757;28;20474;-86
2022/08/20 11:52:51;;;;;;;14.02;12.73;;;;;;;23.81;75.71;100910.41;5050522;28;20063;-85
2022/08/20 11:55:20;;;;;;;14.18;12.80;;;;;;;24.33;73.19;100905.53;5058918;28;20625;-85
2022/08/20 11:57:48;;;;;;;11.38;10.45;;;;;;;24.79;71.30;100913.31;5038020;28;20075;-86